"Assertion Failed" when browsing movies

  Thread Rating:
  • 0 Votes - 0 Average
  • 1
  • 2
  • 3
  • 4
  • 5
Post Reply
fregley Offline
Junior Member
Posts: 5
Joined: May 2011
Reputation: 0
Post: #1
Whenever I browse through my movies, an error dialog pops up warning of a failed assertion in mathematics.c with the expression c > 0. I've tried uninstalling and searching google, but to no avail. What can I do?

Here's my xbmc.log,


14:45:23 T:3652 M:4294967295 NOTICE: -----------------------------------------------------------------------
14:45:23 T:3652 M:4294967295 NOTICE: Starting XBMC, Platform: Windows 7, 64-bit (WoW) Service Pack 1 build 7601. Built on Mar 8 2011 (Git:e9e9099, compiler 1500)
14:45:23 T:3652 M:4294967295 NOTICE: Intel® Core™ i5-2500K CPU @ 3.30GHz
14:45:23 T:3652 M:4294967295 NOTICE: Desktop Resolution: 1920x1080 32Bit at 60Hz
14:45:23 T:3652 M:4294967295 NOTICE: Running with restricted rights
14:45:23 T:3652 M:4294967295 NOTICE: special://xbmc/ is mapped to: C:\Program Files (x86)\XBMC
14:45:23 T:3652 M:4294967295 NOTICE: special://xbmcbin/ is mapped to: C:\Program Files (x86)\XBMC
14:45:23 T:3652 M:4294967295 NOTICE: special://masterprofile/ is mapped to: C:\Users\Brian\AppData\Roaming\XBMC\userdata
14:45:23 T:3652 M:4294967295 NOTICE: special://home/ is mapped to: C:\Users\Brian\AppData\Roaming\XBMC
14:45:23 T:3652 M:4294967295 NOTICE: special://temp/ is mapped to: C:\Users\Brian\AppData\Roaming\XBMC\cache
14:45:23 T:3652 M:4294967295 NOTICE: The executable running is: C:\Program Files (x86)\XBMC\XBMC.exe
14:45:23 T:3652 M:4294967295 NOTICE: Log File is located: C:\Users\Brian\AppData\Roaming\XBMC\xbmc.log
14:45:23 T:3652 M:4294967295 NOTICE: -----------------------------------------------------------------------
14:45:23 T:3652 M:4294967295 NOTICE: Setup SDL
14:45:23 T:3652 M:4294967295 NOTICE: Found screen: Generic PnP Monitor on AMD Radeon HD 6800 Series , adapter 0.
14:45:23 T:3652 M:4294967295 NOTICE: Primary mode: 1920x1080 @ 60.00 - Full Screen
14:45:23 T:3652 M:4294967295 NOTICE: Additional mode: 640x480 @ 60.00 - Full Screen
14:45:23 T:3652 M:4294967295 NOTICE: Additional mode: 640x480 @ 59.94 - Full Screen
14:45:23 T:3652 M:4294967295 NOTICE: Additional mode: 640x480 @ 67.00 - Full Screen
14:45:23 T:3652 M:4294967295 NOTICE: Additional mode: 640x480 @ 72.00 - Full Screen
14:45:23 T:3652 M:4294967295 NOTICE: Additional mode: 640x480 @ 75.00 - Full Screen
14:45:23 T:3652 M:4294967295 NOTICE: Additional mode: 720x480 @ 56.00 - Full Screen
14:45:23 T:3652 M:4294967295 NOTICE: Previous line repeats 2 times.
14:45:23 T:3652 M:4294967295 NOTICE: Additional mode: 720x480 @ 60.00 - Full Screen
14:45:23 T:3652 M:4294967295 NOTICE: Previous line repeats 2 times.
14:45:23 T:3652 M:4294967295 NOTICE: Additional mode: 720x480 @ 72.00 - Full Screen
14:45:23 T:3652 M:4294967295 NOTICE: Previous line repeats 2 times.
14:45:23 T:3652 M:4294967295 NOTICE: Additional mode: 720x480 @ 75.00 - Full Screen
14:45:23 T:3652 M:4294967295 NOTICE: Previous line repeats 2 times.
14:45:23 T:3652 M:4294967295 NOTICE: Additional mode: 720x576 @ 56.00 - Full Screen
14:45:23 T:3652 M:4294967295 NOTICE: Previous line repeats 2 times.
14:45:23 T:3652 M:4294967295 NOTICE: Additional mode: 720x576 @ 60.00 - Full Screen
14:45:23 T:3652 M:4294967295 NOTICE: Previous line repeats 2 times.
14:45:23 T:3652 M:4294967295 NOTICE: Additional mode: 720x576 @ 72.00 - Full Screen
14:45:23 T:3652 M:4294967295 NOTICE: Previous line repeats 2 times.
14:45:23 T:3652 M:4294967295 NOTICE: Additional mode: 720x576 @ 75.00 - Full Screen
14:45:23 T:3652 M:4294967295 NOTICE: Previous line repeats 2 times.
14:45:23 T:3652 M:4294967295 NOTICE: Additional mode: 800x600 @ 56.00 - Full Screen
14:45:23 T:3652 M:4294967295 NOTICE: Additional mode: 800x600 @ 60.00 - Full Screen
14:45:23 T:3652 M:4294967295 NOTICE: Additional mode: 800x600 @ 72.00 - Full Screen
14:45:23 T:3652 M:4294967295 NOTICE: Additional mode: 800x600 @ 75.00 - Full Screen
14:45:23 T:3652 M:4294967295 NOTICE: Additional mode: 1024x768 @ 60.00 - Full Screen
14:45:23 T:3652 M:4294967295 NOTICE: Additional mode: 1024x768 @ 70.00 - Full Screen
14:45:23 T:3652 M:4294967295 NOTICE: Additional mode: 1024x768 @ 75.00 - Full Screen
14:45:23 T:3652 M:4294967295 NOTICE: Additional mode: 1152x864 @ 60.00 - Full Screen
14:45:23 T:3652 M:4294967295 NOTICE: Previous line repeats 2 times.
14:45:23 T:3652 M:4294967295 NOTICE: Additional mode: 1152x864 @ 75.00 - Full Screen
14:45:23 T:3652 M:4294967295 NOTICE: Additional mode: 1280x720 @ 60.00 - Full Screen
14:45:23 T:3652 M:4294967295 NOTICE: Previous line repeats 2 times.
14:45:23 T:3652 M:4294967295 NOTICE: Additional mode: 1280x720 @ 59.94 - Full Screen
14:45:23 T:3652 M:4294967295 NOTICE: Additional mode: 1280x768 @ 60.00 - Full Screen
14:45:23 T:3652 M:4294967295 NOTICE: Previous line repeats 2 times.
14:45:23 T:3652 M:4294967295 NOTICE: Additional mode: 1280x800 @ 60.00 - Full Screen
14:45:23 T:3652 M:4294967295 NOTICE: Previous line repeats 2 times.
14:45:23 T:3652 M:4294967295 NOTICE: Additional mode: 1280x960 @ 60.00 - Full Screen
14:45:23 T:3652 M:4294967295 NOTICE: Additional mode: 1280x1024 @ 60.00 - Full Screen
14:45:23 T:3652 M:4294967295 NOTICE: Additional mode: 1280x1024 @ 75.00 - Full Screen
14:45:23 T:3652 M:4294967295 NOTICE: Additional mode: 1360x768 @ 60.00 - Full Screen
14:45:23 T:3652 M:4294967295 NOTICE: Previous line repeats 2 times.
14:45:23 T:3652 M:4294967295 NOTICE: Additional mode: 1360x1024 @ 60.00 - Full Screen
14:45:23 T:3652 M:4294967295 NOTICE: Previous line repeats 2 times.
14:45:23 T:3652 M:4294967295 NOTICE: Additional mode: 1366x768 @ 60.00 - Full Screen
14:45:23 T:3652 M:4294967295 NOTICE: Previous line repeats 2 times.
14:45:23 T:3652 M:4294967295 NOTICE: Additional mode: 1400x1050 @ 60.00 - Full Screen
14:45:23 T:3652 M:4294967295 NOTICE: Previous line repeats 2 times.
14:45:23 T:3652 M:4294967295 NOTICE: Additional mode: 1440x900 @ 60.00 - Full Screen
14:45:23 T:3652 M:4294967295 NOTICE: Additional mode: 1600x900 @ 60.00 - Full Screen
14:45:23 T:3652 M:4294967295 NOTICE: Previous line repeats 2 times.
14:45:23 T:3652 M:4294967295 NOTICE: Additional mode: 1680x1050 @ 60.00 - Full Screen
14:45:23 T:3652 M:4294967295 NOTICE: Additional mode: 1920x1080 @ 60.00 - Full Screen
14:45:23 T:3652 M:4294967295 NOTICE: Additional mode: 1920x1080 @ 59.94 - Full Screen
14:45:23 T:3652 M:4294967295 NOTICE: load settings...
14:45:23 T:3652 M:4294967295 NOTICE: special://profile/ is mapped to: special://masterprofile/
14:45:23 T:3652 M:4294967295 NOTICE: loading special://masterprofile/guisettings.xml
14:45:23 T:3652 M:4294967295 NOTICE: Getting hardware information now...
14:45:23 T:3652 M:4294967295 NOTICE: Checking resolution 12
14:45:23 T:3652 M:4294967295 NOTICE: Loading player core factory settings from special://xbmc/system/playercorefactory.xml.
14:45:23 T:3652 M:4294967295 NOTICE: Loaded playercorefactory configuration
14:45:23 T:3652 M:4294967295 NOTICE: Loading player core factory settings from special://masterprofile/playercorefactory.xml.
14:45:23 T:3652 M:4294967295 NOTICE: special://masterprofile/playercorefactory.xml does not exist. Skipping.
14:45:23 T:3652 M:4294967295 NOTICE: No advancedsettings.xml to load (special://masterprofile/advancedsettings.xml)
14:45:23 T:3652 M:4294967295 NOTICE: Default DVD Player: dvdplayer
14:45:23 T:3652 M:4294967295 NOTICE: Default Video Player: dvdplayer
14:45:23 T:3652 M:4294967295 NOTICE: Default Audio Player: paplayer
14:45:23 T:3652 M:4294967295 NOTICE: Loading media sources from special://masterprofile/sources.xml
14:45:23 T:3652 M:4294967295 NOTICE: initializing playlistplayer
14:45:23 T:3652 M:4294967295 NOTICE: DONE initializing playlistplayer
14:45:23 T:3652 M:4294967295 NOTICE: initialize done
14:45:23 T:3652 M:4294967295 NOTICE: Running the application...
14:45:23 T:3652 M:4294967295 NOTICE: ES: Starting event server
14:45:23 T:5996 M:4294967295 NOTICE: ES: Starting UDP Event server on 127.0.0.1:9777
14:45:23 T:5996 M:4294967295 NOTICE: UDP: Listening on port 9777
find quote
jhsrennie Offline
Team-XBMC Developer
Posts: 7,248
Joined: Nov 2008
Reputation: 119
Location: Chester, UK
Post: #2
You need to enable debug logging from System settings, System, Debugging.

Can you enable debug logging and restart XBMC. Then reproduce the error. Close XBMC and pop the log on pastebin.com and post the link here. Please don't post logs in the forum as they're too big.

JR
find quote
fregley Offline
Junior Member
Posts: 5
Joined: May 2011
Reputation: 0
Post: #3
I didn't know about pastebin. Sorry, I must have missed a sticky.

Anyway, here's my log.

Also, here's a screenshot of the error dialog.

[Image: bug.jpg]
find quote
jhsrennie Offline
Team-XBMC Developer
Posts: 7,248
Joined: Nov 2008
Reputation: 119
Location: Chester, UK
Post: #4
The log doesn't help that much, but I'd guess that it's crashing trying to extract an image from a video file. I note that the last video it mentions is G:\Movies\Sword in the Stone\sword in the stone.avi, so it's possible it crashed processing this video. You could try temporarily removing the film and see it it stops the crashes.

JR
find quote
fregley Offline
Junior Member
Posts: 5
Joined: May 2011
Reputation: 0
Post: #5
Aha, that seems to have been the problem. The video file apparently had some problems, but I was able to successfully convert it to another format, solving the problem.

Many thanks!
find quote